Time;durP1;ratioP1;P1;durP2;ratioP2;P2;SDS_P1;SDS_P2;PMS_P1;PMS_P2;Temp;Humidity;BMP_temperature;BMP_pressure;BME280_temperature;BME280_humidity;BME280_pressure;Samples;Min_cycle;Max_cycle;Signal;HPM_P1;HPM_P2
2021/03/02 00:02:21;;;;;;;20.00;9.80;;;;;;;5.21;70.04;96379.66;5095080;28;20436;-79
2021/03/02 00:04:48;;;;;;;18.57;10.03;;;;;;;5.22;70.70;96380.53;5094394;28;20424;-79
2021/03/02 00:07:15;;;;;;;16.00;10.30;;;;;;;5.21;69.67;96390.09;5094120;28;20831;-79
2021/03/02 00:10:00;;;;;;;16.97;10.83;;;;;;;5.22;70.53;96386.56;5094223;28;20434;-79
2021/03/02 00:12:27;;;;;;;15.60;10.43;;;;;;;5.25;70.04;96390.81;5094263;28;20450;-79
2021/03/02 00:14:54;;;;;;;19.20;10.67;;;;;;;5.25;69.95;96389.03;5093428;28;20454;-80
2021/03/02 00:17:27;;;;;;;20.27;11.40;;;;;;;5.29;70.36;96388.00;5093598;28;20462;-80
2021/03/02 00:20:01;;;;;;;19.53;11.37;;;;;;;5.34;69.61;96390.44;5094476;28;20465;-79
2021/03/02 00:22:31;;;;;;;25.30;11.03;;;;;;;5.38;69.38;96386.78;5094081;28;20776;-79
2021/03/02 00:25:00;;;;;;;13.13;10.77;;;;;;;5.32;69.47;96389.66;5094135;28;20488;-79
2021/03/02 00:27:29;;;;;;;16.67;11.60;;;;;;;5.23;69.56;96390.03;5093840;28;20483;-79
2021/03/02 00:29:57;;;;;;;21.00;13.37;;;;;;;5.06;70.97;96385.47;5093509;28;20832;-80
2021/03/02 00:32:23;;;;;;;26.47;14.20;;;;;;;4.83;71.07;96383.75;5094152;28;20443;-79
2021/03/02 00:34:51;;;;;;;22.73;12.53;;;;;;;4.68;72.46;96392.16;5093751;28;20435;-80
2021/03/02 00:37:17;;;;;;;28.27;17.43;;;;;;;4.42;74.04;96384.47;5093852;28;20449;-79
2021/03/02 00:39:44;;;;;;;35.43;20.07;;;;;;;4.45;73.79;96377.41;5093682;28;20447;-80
2021/03/02 00:42:11;;;;;;;45.03;23.00;;;;;;;4.42;73.66;96366.28;5093919;28;20447;-80
2021/03/02 00:44:37;;;;;;;40.40;23.10;;;;;;;4.44;74.38;96375.72;5094418;28;20461;-79
2021/03/02 00:47:05;;;;;;;36.10;19.33;;;;;;;4.42;73.94;96369.72;5094466;28;20471;-79
2021/03/02 00:49:31;;;;;;;34.83;21.90;;;;;;;4.42;73.90;96369.72;5097118;28;20443;-79
2021/03/02 00:51:57;;;;;;;36.23;23.23;;;;;;;4.45;74.19;96377.41;5098774;28;20496;-79
2021/03/02 00:54:24;;;;;;;39.27;22.90;;;;;;;4.49;73.72;96372.94;5098797;28;20443;-79
2021/03/02 00:56:50;;;;;;;45.53;23.50;;;;;;;4.40;74.19;96383.69;5099075;28;20482;-79
2021/03/02 00:59:16;;;;;;;43.80;22.20;;;;;;;4.39;73.81;96371.59;5098650;28;20444;-79
2021/03/02 01:01:43;;;;;;;41.17;23.53;;;;;;;4.43;74.47;96376.63;5098848;28;20450;-80
2021/03/02 01:04:10;;;;;;;41.37;22.17;;;;;;;4.38;74.33;96375.94;5098300;28;20465;-80
2021/03/02 01:06:36;;;;;;;44.17;26.60;;;;;;;4.40;73.69;96373.28;5100527;28;20884;-80
2021/03/02 01:09:07;;;;;;;38.83;22.33;;;;;;;4.38;74.55;96365.53;5064981;28;20559;-80
2021/03/02 01:11:33;;;;;;;67.33;31.60;;;;;;;4.43;74.11;96373.16;5098753;28;20443;-79
2021/03/02 01:14:00;;;;;;;45.30;26.70;;;;;;;4.45;74.75;96371.34;5098113;28;20534;-79
2021/03/02 01:16:26;;;;;;;47.17;26.43;;;;;;;4.44;74.43;96375.72;5098031;28;20526;-79
2021/03/02 01:18:53;;;;;;;53.57;28.67;;;;;;;4.44;74.42;96377.47;5097560;28;20437;-79
2021/03/02 01:21:20;;;;;;;44.87;26.00;;;;;;;4.44;74.23;96382.66;5097510;28;20518;-80
2021/03/02 01:23:46;;;;;;;46.50;26.50;;;;;;;4.38;74.37;96375.09;5097596;28;20442;-79
2021/03/02 01:26:13;;;;;;;59.17;29.17;;;;;;;4.34;74.03;96380.41;5097397;28;20539;-80
2021/03/02 01:28:40;;;;;;;51.30;29.17;;;;;;;4.37;74.23;96368.19;5097486;28;20492;-80
2021/03/02 01:31:06;;;;;;;48.80;30.63;;;;;;;4.44;74.74;96369.66;5097690;28;20467;-80
2021/03/02 01:33:32;;;;;;;49.73;30.13;;;;;;;4.44;73.76;96361.88;5097960;28;20455;-79
2021/03/02 01:35:59;;;;;;;58.37;31.20;;;;;;;4.44;73.86;96361.88;5098070;28;20447;-79
2021/03/02 01:38:26;;;;;;;57.53;30.13;;;;;;;4.46;74.57;96360.06;5046846;28;20443;-80
2021/03/02 01:40:53;;;;;;;57.63;31.00;;;;;;;4.49;74.32;96359.94;5098234;28;20434;-79
2021/03/02 01:43:19;;;;;;;58.60;30.00;;;;;;;4.49;73.68;96357.34;5098157;28;20939;-79
2021/03/02 01:45:46;;;;;;;45.90;27.20;;;;;;;4.49;73.39;96354.75;5097160;28;20439;-80
2021/03/02 01:48:13;;;;;;;53.60;26.50;;;;;;;4.49;73.50;96358.19;5098238;28;20487;-79
2021/03/02 01:50:39;;;;;;;46.17;26.90;;;;;;;4.48;73.44;96350.44;5062732;28;20434;-79
2021/03/02 01:53:06;;;;;;;41.20;23.93;;;;;;;4.48;72.66;96346.09;5097754;28;20428;-80
2021/03/02 01:55:33;;;;;;;40.73;22.10;;;;;;;4.39;72.96;96345.59;5062374;28;20439;-80
2021/03/02 01:57:59;;;;;;;39.27;19.43;;;;;;;4.40;72.44;96352.50;5097662;28;20436;-79
2021/03/02 02:00:29;;;;;;;39.90;21.13;;;;;;;4.34;72.66;96346.63;5097131;28;20465;-79
2021/03/02 02:03:06;;;;;;;37.60;22.33;;;;;;;4.27;73.64;96346.88;5097577;28;20439;-79
2021/03/02 02:05:37;;;;;;;32.97;18.77;;;;;;;4.13;73.79;96338.75;5061289;28;20435;-79
2021/03/02 02:08:07;;;;;;;28.47;17.60;;;;;;;4.13;74.28;96337.00;5096356;28;20436;-79
2021/03/02 02:10:43;;;;;;;24.90;14.13;;;;;;;4.15;74.80;96334.34;5096293;28;20518;-80
2021/03/02 02:13:17;;;;;;;24.33;13.40;;;;;;;4.15;74.28;96332.59;5096243;28;20423;-80
2021/03/02 02:15:45;;;;;;;19.27;10.77;;;;;;;4.19;73.82;96329.00;5096303;28;20988;-81
2021/03/02 02:18:16;;;;;;;25.37;10.37;;;;;;;4.21;73.55;96332.38;5094860;28;20436;-80
2021/03/02 02:20:50;;;;;;;18.20;10.23;;;;;;;4.25;73.84;96333.94;5096278;28;20496;-79
2021/03/02 02:23:41;;;;;;;14.20;9.57;;;;;;;4.22;73.97;96328.88;5096449;28;20474;-79
2021/03/02 02:26:21;;;;;;;14.77;10.87;;;;;;;4.20;74.40;96330.69;5014175;28;20990;-79
2021/03/02 02:28:50;;;;;;;20.00;10.90;;;;;;;4.21;73.92;96323.72;5014300;28;20801;-80
2021/03/02 02:31:18;;;;;;;16.10;10.83;;;;;;;4.23;74.12;96335.75;5014075;28;20474;-79
2021/03/02 02:33:46;;;;;;;14.73;10.87;;;;;;;4.27;73.93;96341.69;5014149;28;20444;-79
2021/03/02 02:36:16;;;;;;;16.37;11.00;;;;;;;4.21;74.34;96341.91;5013860;28;20443;-79
2021/03/02 02:38:46;;;;;;;15.43;9.67;;;;;;;4.22;75.06;96344.47;5013766;28;20843;-79
2021/03/02 02:41:13;;;;;;;18.03;10.43;;;;;;;4.22;75.26;96344.47;5013743;28;20808;-79
2021/03/02 02:43:41;;;;;;;21.40;11.80;;;;;;;4.24;74.99;96355.63;5013327;28;20444;-79
2021/03/02 02:46:10;;;;;;;21.90;12.97;;;;;;;4.21;74.20;96353.16;5013452;28;20487;-79
2021/03/02 02:48:36;;;;;;;26.03;14.20;;;;;;;4.23;74.65;96346.16;5013249;28;20522;-79
2021/03/02 02:51:03;;;;;;;20.40;13.03;;;;;;;4.16;74.64;96344.69;5012993;28;20530;-80
2021/03/02 02:53:31;;;;;;;31.73;18.90;;;;;;;4.08;75.14;96364.91;4980665;28;20824;-79
2021/03/02 02:56:00;;;;;;;40.23;23.30;;;;;;;3.57;76.99;96364.97;4996651;28;20443;-80
2021/03/02 02:58:31;;;;;;;43.10;25.30;;;;;;;3.48;76.97;96363.53;5013384;28;20542;-80
2021/03/02 03:01:01;;;;;;;41.13;24.30;;;;;;;3.25;77.44;96366.88;5013607;28;20448;-79
2021/03/02 03:03:32;;;;;;;46.07;24.90;;;;;;;3.21;78.00;96369.63;5064986;28;20482;-79
2021/03/02 03:06:03;;;;;;;48.93;24.40;;;;;;;3.12;78.46;96362.97;5095516;28;20624;-79
2021/03/02 03:08:32;;;;;;;48.63;24.70;;;;;;;3.06;79.14;96370.94;5095419;28;20447;-79
2021/03/02 03:11:00;;;;;;;38.13;23.50;;;;;;;3.13;78.56;96379.38;5094830;28;20451;-79
2021/03/02 03:13:31;;;;;;;51.53;26.00;;;;;;;3.18;78.59;96387.84;5095299;28;20447;-79
2021/03/02 03:16:01;;;;;;;44.80;29.23;;;;;;;3.15;79.39;96387.94;5095525;28;20424;-79
2021/03/02 03:18:32;;;;;;;52.67;29.40;;;;;;;3.09;78.91;96382.06;5095265;28;20826;-79
2021/03/02 03:20:59;;;;;;;50.70;28.90;;;;;;;3.09;80.03;96387.25;5095419;28;20455;-79
2021/03/02 03:23:27;;;;;;;62.50;32.23;;;;;;;3.13;79.96;96389.75;5094868;28;20878;-80
2021/03/02 03:25:54;;;;;;;51.63;30.00;;;;;;;3.04;80.13;96393.47;5094714;28;20451;-79
2021/03/02 03:28:23;;;;;;;56.40;30.00;;;;;;;3.14;80.30;96397.47;5094602;28;20504;-80
2021/03/02 03:30:50;;;;;;;59.07;31.00;;;;;;;3.20;79.61;96399.91;5095446;28;20471;-79
2021/03/02 03:33:20;;;;;;;47.70;28.30;;;;;;;3.29;79.24;96398.75;5094860;28;20434;-80
2021/03/02 03:35:48;;;;;;;54.30;29.75;;;;;;;3.33;78.63;96395.16;5094551;28;20432;-79
2021/03/02 03:38:14;;;;;;;53.50;29.27;;;;;;;3.34;78.21;96389.06;5094552;28;20634;-80
2021/03/02 03:40:40;;;;;;;49.20;26.73;;;;;;;3.39;78.22;96397.53;5094662;28;20443;-79
2021/03/02 03:43:07;;;;;;;49.40;28.23;;;;;;;3.38;76.50;96401.03;5094829;28;20455;-79
2021/03/02 03:45:33;;;;;;;48.93;25.83;;;;;;;3.38;77.01;96401.88;5094481;28;20456;-79
2021/03/02 03:47:59;;;;;;;46.03;25.53;;;;;;;3.41;76.67;96390.56;5094451;28;20490;-79
2021/03/02 03:50:26;;;;;;;45.77;24.40;;;;;;;3.43;77.31;96380.97;5094599;28;20444;-79
2021/03/02 03:52:59;;;;;;;39.80;23.90;;;;;;;3.45;76.44;96379.16;5094351;28;20443;-79
2021/03/02 03:55:31;;;;;;;42.97;24.37;;;;;;;3.43;76.15;96381.81;5094433;28;20435;-79
2021/03/02 03:57:58;;;;;;;62.80;27.60;;;;;;;3.43;75.81;96391.34;5042398;28;20486;-80
2021/03/02 04:00:25;;;;;;;49.70;26.17;;;;;;;3.42;75.49;96397.44;5094009;28;20435;-79
2021/03/02 04:02:52;;;;;;;43.67;24.37;;;;;;;3.41;75.52;96395.75;5094440;28;20793;-79
2021/03/02 04:05:21;;;;;;;47.10;27.83;;;;;;;3.41;75.83;96398.34;5094075;28;20455;-79
2021/03/02 04:07:48;;;;;;;44.37;25.73;;;;;;;3.40;76.35;96392.31;5094334;28;20482;-79
2021/03/02 04:10:16;;;;;;;52.23;26.23;;;;;;;3.39;76.49;96407.91;5094056;28;20428;-80
2021/03/02 04:12:44;;;;;;;51.67;28.80;;;;;;;3.36;75.97;96393.31;5094212;28;20440;-79
2021/03/02 04:15:12;;;;;;;49.70;25.53;;;;;;;3.36;75.96;96400.25;5094435;28;20443;-80
2021/03/02 04:17:38;;;;;;;40.27;24.40;;;;;;;3.36;76.03;96393.31;5094553;28;20434;-80
2021/03/02 04:20:06;;;;;;;40.70;24.10;;;;;;;3.31;76.43;96386.56;5093786;28;20788;-79
2021/03/02 04:22:36;;;;;;;40.00;21.40;;;;;;;3.28;77.02;96391.88;5094187;28;20459;-79
2021/03/02 04:25:03;;;;;;;42.53;20.90;;;;;;;3.27;76.79;96390.16;5094123;28;20796;-79
2021/03/02 04:27:30;;;;;;;30.43;18.20;;;;;;;3.24;77.73;96392.88;5093548;28;20974;-79
2021/03/02 04:29:57;;;;;;;27.93;18.27;;;;;;;3.20;78.18;96393.88;5093692;28;20537;-79
2021/03/02 04:32:23;;;;;;;30.07;16.63;;;;;;;3.13;78.53;96390.59;5042043;28;20456;-79
2021/03/02 04:34:50;;;;;;;25.77;15.80;;;;;;;3.14;79.24;96394.03;5093687;28;20430;-79
2021/03/02 04:37:17;;;;;;;36.67;17.77;;;;;;;3.07;79.20;96393.38;5093708;28;20436;-79
2021/03/02 04:39:43;;;;;;;24.33;14.67;;;;;;;3.01;80.01;96391.84;5093186;28;20452;-79
2021/03/02 04:42:10;;;;;;;20.83;14.43;;;;;;;3.01;79.80;96391.84;5093342;28;20436;-79
2021/03/02 04:44:37;;;;;;;24.80;16.47;;;;;;;3.01;80.53;96391.00;5093780;28;20444;-79
2021/03/02 04:47:03;;;;;;;23.73;14.87;;;;;;;3.07;80.85;96391.63;5093682;28;20471;-79
2021/03/02 04:49:30;;;;;;;26.10;16.00;;;;;;;3.11;80.43;96394.97;5093181;28;20987;-79
2021/03/02 04:51:56;;;;;;;25.63;14.83;;;;;;;3.17;79.96;96392.19;5094014;28;20460;-79
2021/03/02 04:54:24;;;;;;;22.80;13.83;;;;;;;3.20;79.47;96396.47;5093458;28;20456;-80
2021/03/02 04:56:51;;;;;;;27.80;16.37;;;;;;;3.14;80.02;96387.09;5093785;28;20564;-79
2021/03/02 04:59:17;;;;;;;29.10;15.30;;;;;;;3.20;79.95;96393.88;5093246;28;20451;-79
2021/03/02 05:01:45;;;;;;;31.57;15.90;;;;;;;3.21;79.28;96396.41;5093608;28;20911;-79
2021/03/02 05:04:11;;;;;;;22.40;16.20;;;;;;;3.26;79.29;96402.28;5093463;28;20431;-80
2021/03/02 05:06:38;;;;;;;24.70;16.47;;;;;;;3.33;78.73;96402.94;5093270;28;20467;-79
2021/03/02 05:09:05;;;;;;;26.50;18.37;;;;;;;3.38;78.57;96403.63;5093455;28;20461;-80
2021/03/02 05:11:31;;;;;;;24.27;16.50;;;;;;;3.41;78.13;96406.13;5093477;28;20481;-80
2021/03/02 05:13:57;;;;;;;30.47;18.30;;;;;;;3.48;78.36;96407.63;5093703;28;20847;-79
2021/03/02 05:16:24;;;;;;;23.40;18.40;;;;;;;3.51;77.39;96411.88;5093478;28;20447;-79
2021/03/02 05:18:51;;;;;;;35.67;23.00;;;;;;;3.28;77.88;96418.66;5093315;28;20538;-79
2021/03/02 05:21:18;;;;;;;41.57;25.60;;;;;;;3.13;77.36;96426.91;5093517;28;20463;-79
2021/03/02 05:23:44;;;;;;;39.03;25.90;;;;;;;3.10;77.22;96425.25;5093435;28;20428;-79
2021/03/02 05:26:10;;;;;;;55.23;30.23;;;;;;;3.11;78.20;96429.53;5093410;28;20479;-80
2021/03/02 05:28:37;;;;;;;45.97;27.57;;;;;;;3.08;77.62;96436.56;5093010;28;20447;-79
2021/03/02 05:31:03;;;;;;;55.13;27.10;;;;;;;3.13;78.16;96431.22;5093433;28;20483;-80
2021/03/02 05:33:29;;;;;;;44.67;25.70;;;;;;;3.49;78.35;96430.09;5092973;28;20843;-80
2021/03/02 05:35:57;;;;;;;41.20;25.47;;;;;;;4.14;76.05;96428.78;5057921;28;20438;-80
2021/03/02 05:38:23;;;;;;;51.20;26.53;;;;;;;4.98;72.35;96426.53;5093273;28;20451;-80
2021/03/02 05:40:50;;;;;;;45.50;24.67;;;;;;;5.86;68.96;96419.53;5092990;28;20462;-80
2021/03/02 05:43:16;;;;;;;42.10;24.83;;;;;;;6.74;65.74;96423.53;5092832;28;20467;-79
2021/03/02 05:45:44;;;;;;;44.20;24.27;;;;;;;7.64;62.55;96415.84;5093425;28;20496;-79
2021/03/02 05:48:12;;;;;;;44.23;25.20;;;;;;;8.49;59.54;96416.78;5093019;28;20486;-79
2021/03/02 05:50:38;;;;;;;37.13;23.13;;;;;;;9.24;56.79;96416.19;5092973;28;20809;-79
2021/03/02 05:53:06;;;;;;;36.60;21.67;;;;;;;9.95;54.37;96415.69;5095974;28;20977;-80
2021/03/02 05:55:34;;;;;;;33.00;21.97;;;;;;;10.59;52.56;96419.78;5096353;28;20502;-79
2021/03/02 05:58:03;;;;;;;34.87;22.00;;;;;;;10.98;50.54;96418.28;5096687;28;20460;-79
2021/03/02 06:00:30;;;;;;;28.67;17.53;;;;;;;11.30;50.02;96425.00;5096965;28;20447;-79
2021/03/02 06:02:57;;;;;;;35.30;18.90;;;;;;;11.77;47.82;96423.75;5097042;28;20438;-80
2021/03/02 06:05:23;;;;;;;28.63;18.43;;;;;;;12.14;47.60;96416.09;5096483;28;20431;-80
2021/03/02 06:07:49;;;;;;;17.60;12.80;;;;;;;12.20;46.67;96416.53;5096806;28;20487;-80
2021/03/02 06:10:17;;;;;;;22.80;15.30;;;;;;;12.37;46.45;96413.59;5096735;28;20444;-80
2021/03/02 06:12:51;;;;;;;23.63;15.20;;;;;;;12.54;45.73;96419.53;5096265;28;20458;-80
2021/03/02 06:15:19;;;;;;;28.70;15.33;;;;;;;12.72;45.30;96410.34;5096700;28;20440;-80
2021/03/02 06:17:45;;;;;;;23.77;12.37;;;;;;;12.85;45.22;96419.09;5096716;28;20471;-80
2021/03/02 06:20:20;;;;;;;19.47;12.17;;;;;;;13.06;44.43;96422.03;5096046;28;20943;-80
2021/03/02 06:22:46;;;;;;;31.03;15.53;;;;;;;13.16;44.46;96423.06;5096281;28;20446;-79
2021/03/02 06:25:28;;;;;;;32.57;15.93;;;;;;;13.25;44.06;96424.25;5096465;28;20447;-80
2021/03/02 06:27:55;;;;;;;20.97;13.10;;;;;;;13.32;43.74;96429.00;5095768;28;20602;-79
2021/03/02 06:30:23;;;;;;;49.33;31.77;;;;;;;12.75;44.46;96427.75;5096268;28;20562;-79
2021/03/02 06:32:52;;;;;;;42.23;29.00;;;;;;;12.00;46.33;96438.06;5096322;28;20912;-79
2021/03/02 06:35:32;;;;;;;44.53;31.37;;;;;;;11.23;49.03;96438.63;5096124;28;20451;-79
2021/03/02 06:37:59;;;;;;;40.50;28.83;;;;;;;10.48;51.08;96436.19;5096798;28;20833;-80
2021/03/02 06:40:43;;;;;;;43.23;26.73;;;;;;;9.82;52.58;96441.75;5096087;28;20485;-79
2021/03/02 06:43:29;;;;;;;45.90;29.47;;;;;;;9.52;54.26;96448.72;5095650;28;20445;-79
2021/03/02 06:45:56;;;;;;;51.27;29.50;;;;;;;9.31;54.71;96442.91;5096070;28;20449;-79
2021/03/02 06:48:23;;;;;;;49.00;29.53;;;;;;;9.32;55.07;96452.47;5043866;28;20507;-80
2021/03/02 06:50:50;;;;;;;50.07;28.97;;;;;;;9.50;55.24;96455.81;5095788;28;20503;-79
2021/03/02 06:53:17;;;;;;;51.83;31.53;;;;;;;9.66;55.00;96451.44;5095459;28;20506;-79
2021/03/02 06:55:44;;;;;;;54.33;31.90;;;;;;;9.66;55.16;96450.59;5095415;28;20441;-79
2021/03/02 06:58:18;;;;;;;44.87;32.07;;;;;;;9.91;54.66;96441.25;5095681;28;20432;-80
2021/03/02 07:00:50;;;;;;;55.50;32.33;;;;;;;9.88;54.84;96446.66;5095563;28;20894;-79
2021/03/02 07:03:23;;;;;;;51.70;31.13;;;;;;;10.12;54.78;96436.53;5094788;28;20440;-80
2021/03/02 07:05:50;;;;;;;52.93;30.80;;;;;;;10.40;53.18;96438.41;5095258;28;20444;-80
2021/03/02 07:08:17;;;;;;;48.90;28.67;;;;;;;10.59;53.18;96439.94;5095530;28;20470;-79
2021/03/02 07:10:49;;;;;;;48.30;31.10;;;;;;;10.53;52.39;96430.66;5095833;28;20446;-79
2021/03/02 07:13:16;;;;;;;45.27;30.00;;;;;;;10.54;53.37;96438.44;5095316;28;20432;-79
2021/03/02 07:15:44;;;;;;;51.50;31.33;;;;;;;10.75;52.62;96433.69;5094726;28;20446;-79
2021/03/02 07:18:14;;;;;;;55.17;30.37;;;;;;;10.90;53.46;96431.88;5095138;28;20843;-79
2021/03/02 07:20:46;;;;;;;40.70;27.30;;;;;;;11.15;51.58;96426.81;5095143;28;20449;-79
2021/03/02 07:23:13;;;;;;;41.87;24.37;;;;;;;11.35;50.46;96420.31;5095201;28;20539;-79
2021/03/02 07:25:43;;;;;;;53.70;29.43;;;;;;;11.56;49.94;96423.31;5095010;28;20531;-79
2021/03/02 07:28:11;;;;;;;47.47;26.00;;;;;;;11.78;48.75;96421.03;5094714;28;20558;-79
2021/03/02 07:30:39;;;;;;;38.90;24.60;;;;;;;11.89;48.09;96422.16;5043203;28;20467;-79
2021/03/02 07:33:07;;;;;;;31.43;21.10;;;;;;;11.98;48.25;96422.38;5094898;28;20500;-79
2021/03/02 07:35:34;;;;;;;31.53;23.70;;;;;;;12.15;47.53;96423.06;5043581;28;20428;-79
2021/03/02 07:38:12;;;;;;;31.70;20.50;;;;;;;12.15;47.79;96421.28;5094846;28;20809;-79
2021/03/02 07:40:52;;;;;;;26.00;19.50;;;;;;;12.23;46.21;96421.59;5095125;28;20786;-79
2021/03/02 07:43:34;;;;;;;36.73;19.83;;;;;;;12.31;47.44;96418.44;5094550;28;20447;-79
2021/03/02 07:46:02;;;;;;;36.77;22.60;;;;;;;12.44;46.35;96418.47;5094470;28;20443;-79
2021/03/02 07:48:30;;;;;;;30.27;20.80;;;;;;;12.54;46.50;96409.84;5094940;28;20452;-79
2021/03/02 07:51:20;;;;;;;31.10;20.47;;;;;;;12.04;46.10;96415.88;5094425;28;20428;-79
2021/03/02 07:53:49;;;;;;;34.07;22.77;;;;;;;11.95;46.72;96404.16;5094483;28;20438;-79
2021/03/02 07:56:21;;;;;;;33.40;24.80;;;;;;;11.62;47.06;96407.19;5094163;28;20447;-79
2021/03/02 07:59:18;;;;;;;34.33;24.07;;;;;;;11.32;48.24;96415.25;5094721;28;20585;-79
2021/03/02 08:01:45;;;;;;;35.73;23.23;;;;;;;11.06;48.96;96411.63;5094425;28;20436;-79
2021/03/02 08:04:25;;;;;;;40.00;24.63;;;;;;;11.15;48.77;96402.31;5094110;28;21008;-79
2021/03/02 08:06:52;;;;;;;38.33;24.67;;;;;;;11.01;48.84;96403.19;5094385;28;20561;-79
2021/03/02 08:09:30;;;;;;;33.43;22.60;;;;;;;11.27;48.13;96414.66;5094247;28;20442;-79
2021/03/02 08:12:32;;;;;;;40.10;24.23;;;;;;;11.40;48.44;96410.34;5094106;28;20451;-79
2021/03/02 08:15:02;;;;;;;36.60;23.07;;;;;;;11.39;48.22;96410.44;5093091;28;20526;-79
2021/03/02 08:17:28;;;;;;;37.87;23.20;;;;;;;11.34;48.13;96410.75;5093933;28;20507;-79
2021/03/02 08:20:04;;;;;;;33.97;24.73;;;;;;;11.46;47.93;96404.69;5094043;28;20797;-80
2021/03/02 08:22:50;;;;;;;36.80;22.33;;;;;;;11.56;48.45;96404.94;5093957;28;20450;-79
2021/03/02 08:25:31;;;;;;;33.63;21.77;;;;;;;11.51;48.29;96411.44;5093851;28;20485;-79
2021/03/02 08:28:01;;;;;;;30.00;20.70;;;;;;;11.15;48.14;96410.19;5093513;28;20483;-78
2021/03/02 08:30:31;;;;;;;32.57;20.93;;;;;;;10.76;48.72;96409.13;5093796;28;20486;-79
2021/03/02 08:32:58;;;;;;;40.03;24.40;;;;;;;10.53;50.58;96401.78;5093311;28;20496;-79
2021/03/02 08:35:29;;;;;;;34.20;22.73;;;;;;;10.33;51.25;96399.50;5093529;28;20451;-78
2021/03/02 08:37:57;;;;;;;30.73;19.67;;;;;;;10.04;51.35;96398.56;5093524;28;20449;-78
2021/03/02 08:40:25;;;;;;;28.77;18.23;;;;;;;10.20;52.10;96402.00;5093241;28;20451;-78
2021/03/02 08:43:02;;;;;;;17.93;11.40;;;;;;;10.30;48.48;96389.19;5092793;28;20940;-79
2021/03/02 08:45:30;;;;;;;16.47;12.47;;;;;;;10.60;48.76;96394.38;5093289;28;20469;-79
2021/03/02 08:48:19;;;;;;;12.20;9.20;;;;;;;10.94;47.86;96387.88;5092911;28;20483;-78
2021/03/02 08:50:47;;;;;;;24.00;17.77;;;;;;;11.09;48.07;96384.31;5093068;28;20446;-78
2021/03/02 08:53:37;;;;;;;27.23;17.43;;;;;;;11.21;46.70;96385.31;5093322;28;20529;-79
2021/03/02 08:56:05;;;;;;;25.17;15.70;;;;;;;11.14;46.71;96375.19;5093393;28;20449;-79
2021/03/02 08:58:34;;;;;;;24.90;17.17;;;;;;;11.21;46.56;96383.53;5092877;28;21013;-79
2021/03/02 09:01:04;;;;;;;22.10;15.10;;;;;;;11.45;46.12;96375.88;5093843;28;20440;-79
2021/03/02 09:03:31;;;;;;;32.53;17.47;;;;;;;11.63;46.53;96374.69;5093778;28;20496;-80
2021/03/02 09:06:11;;;;;;;33.90;19.20;;;;;;;11.87;46.24;96374.91;5093464;28;20470;-78
2021/03/02 09:08:48;;;;;;;28.10;18.97;;;;;;;12.04;44.75;96373.75;5093396;28;20441;-78
2021/03/02 09:11:16;;;;;;;32.20;20.50;;;;;;;11.93;44.10;96365.75;5093758;28;20451;-78
2021/03/02 09:13:43;;;;;;;29.70;21.20;;;;;;;11.90;44.57;96374.69;5093010;28;20424;-79
2021/03/02 09:16:34;;;;;;;36.00;19.80;;;;;;;12.03;44.55;96377.34;5093102;28;20504;-79
2021/03/02 09:19:03;;;;;;;52.57;19.77;;;;;;;12.23;44.77;96376.00;5093583;28;20444;-79
2021/03/02 09:21:31;;;;;;;27.30;16.57;;;;;;;12.30;42.55;96372.84;5093440;28;20433;-79
2021/03/02 09:23:57;;;;;;;30.53;18.73;;;;;;;12.39;43.08;96371.38;5093228;28;20440;-79
2021/03/02 09:26:26;;;;;;;26.27;18.53;;;;;;;12.46;42.29;96374.47;5093598;28;20881;-79
2021/03/02 09:28:54;;;;;;;35.40;17.83;;;;;;;12.46;41.61;96363.94;5097165;28;20449;-79
2021/03/02 09:31:20;;;;;;;23.80;13.13;;;;;;;12.25;40.42;96372.34;5097181;28;20541;-79
2021/03/02 09:33:49;;;;;;;13.50;10.87;;;;;;;12.06;40.40;96369.25;5097215;28;20931;-79
2021/03/02 09:36:16;;;;;;;17.53;10.93;;;;;;;11.99;40.23;96362.72;5096998;28;20850;-79
2021/03/02 09:38:42;;;;;;;11.20;9.17;;;;;;;12.15;39.58;96370.44;5096843;28;20446;-78
2021/03/02 09:41:09;;;;;;;15.73;10.70;;;;;;;12.21;39.99;96364.75;5097591;28;20497;-78
2021/03/02 09:43:36;;;;;;;16.77;11.90;;;;;;;12.15;40.32;96358.13;5097077;28;20448;-78
2021/03/02 09:46:04;;;;;;;14.40;10.30;;;;;;;12.15;38.66;96366.00;5045358;28;20443;-78
2021/03/02 09:48:43;;;;;;;12.70;9.47;;;;;;;11.70;39.83;96351.47;5096634;28;21057;-78
2021/03/02 09:51:28;;;;;;;12.10;7.90;;;;;;;11.79;39.46;96356.97;5096970;28;20446;-78
2021/03/02 09:54:13;;;;;;;16.27;9.30;;;;;;;11.76;39.67;96353.69;5097037;28;20501;-78
2021/03/02 09:56:39;;;;;;;10.30;8.40;;;;;;;11.74;39.83;96348.53;5096672;28;20455;-78
2021/03/02 09:59:07;;;;;;;10.97;8.60;;;;;;;11.80;39.62;96344.66;5096417;28;20435;-78
2021/03/02 10:01:34;;;;;;;10.83;8.17;;;;;;;11.65;40.13;96341.25;5096568;28;20441;-77
2021/03/02 10:04:07;;;;;;;14.83;8.70;;;;;;;11.71;40.92;96345.25;5096788;28;20443;-78
2021/03/02 10:06:34;;;;;;;15.10;8.10;;;;;;;11.58;39.57;96342.59;5096971;28;20447;-79
2021/03/02 10:09:00;;;;;;;17.90;8.60;;;;;;;11.38;41.18;96353.56;5096925;28;20448;-79
2021/03/02 10:11:28;;;;;;;11.60;9.07;;;;;;;11.18;40.92;96353.03;5096657;28;20451;-80
2021/03/02 10:13:55;;;;;;;12.27;8.53;;;;;;;11.11;41.33;96346.50;5097142;28;20446;-81
2021/03/02 10:16:24;;;;;;;8.80;7.07;;;;;;;11.16;41.10;96344.41;5097020;28;20469;-81
2021/03/02 10:18:54;;;;;;;10.47;7.17;;;;;;;11.18;41.31;96334.66;5096792;28;20450;-81
2021/03/02 10:21:21;;;;;;;8.60;7.43;;;;;;;11.31;42.49;96329.47;5096922;28;20477;-81
2021/03/02 10:23:50;;;;;;;13.93;8.60;;;;;;;11.21;41.86;96330.13;5096822;28;20443;-80
2021/03/02 10:26:22;;;;;;;11.33;7.93;;;;;;;11.09;42.19;96321.28;5096714;28;20522;-81
2021/03/02 10:28:48;;;;;;;9.27;6.70;;;;;;;11.09;41.36;96332.63;5061018;28;20938;-80
2021/03/02 10:31:15;;;;;;;7.60;6.70;;;;;;;11.18;41.82;96324.13;5097114;28;20480;-80
2021/03/02 10:33:41;;;;;;;10.83;7.40;;;;;;;11.06;40.92;96319.69;5096272;28;20440;-81
2021/03/02 10:36:20;;;;;;;9.30;6.93;;;;;;;11.00;40.56;96327.97;5096146;28;20454;-81
2021/03/02 10:38:46;;;;;;;13.13;7.83;;;;;;;11.05;41.79;96315.38;5095208;28;20453;-81
2021/03/02 10:41:14;;;;;;;17.53;9.30;;;;;;;11.18;42.48;96321.50;5096587;28;20916;-81
2021/03/02 10:43:40;;;;;;;11.37;7.83;;;;;;;11.27;42.85;96317.44;5096485;28;20424;-81
2021/03/02 10:46:06;;;;;;;11.50;8.07;;;;;;;11.23;42.07;96307.22;5096837;28;20942;-81
2021/03/02 10:48:33;;;;;;;10.67;7.70;;;;;;;11.17;41.98;96309.31;5096615;28;20490;-81
2021/03/02 10:51:00;;;;;;;12.97;7.00;;;;;;;11.24;41.22;96309.75;5096381;28;20440;-81
2021/03/02 10:53:26;;;;;;;8.13;6.97;;;;;;;11.21;41.30;96309.13;5095822;28;20458;-81
2021/03/02 10:55:52;;;;;;;9.50;6.90;;;;;;;11.23;41.25;96300.19;5095891;28;20444;-81
2021/03/02 10:58:19;;;;;;;11.23;7.10;;;;;;;11.22;42.06;96292.41;5096069;28;20449;-81
2021/03/02 11:00:46;;;;;;;8.10;6.50;;;;;;;11.32;41.28;96288.25;5095986;28;20454;-81
2021/03/02 11:03:12;;;;;;;9.27;6.13;;;;;;;11.30;42.55;96284.91;5010834;28;20447;-81
2021/03/02 11:05:38;;;;;;;15.00;7.53;;;;;;;11.33;42.94;96272.41;5095889;28;20448;-81
2021/03/02 11:08:06;;;;;;;9.40;6.93;;;;;;;11.44;43.05;96271.69;5095539;28;20480;-81
2021/03/02 11:10:32;;;;;;;8.13;6.83;;;;;;;11.24;42.06;96266.88;5093324;28;20485;-81
2021/03/02 11:12:59;;;;;;;14.40;7.03;;;;;;;11.20;42.41;96266.25;5094947;28;20450;-82
2021/03/02 11:15:26;;;;;;;7.67;6.63;;;;;;;11.13;42.35;96268.44;5094429;28;20446;-81
2021/03/02 11:17:53;;;;;;;8.37;6.57;;;;;;;11.01;42.29;96263.97;5094550;28;20961;-81
2021/03/02 11:20:19;;;;;;;7.70;6.10;;;;;;;10.97;43.84;96254.59;5094717;28;20810;-81
2021/03/02 11:22:45;;;;;;;9.07;6.73;;;;;;;11.07;42.86;96255.69;5042474;28;20443;-82
2021/03/02 11:25:17;;;;;;;9.60;6.43;;;;;;;11.18;43.11;96247.09;5094819;28;20790;-81
2021/03/02 11:27:45;;;;;;;8.33;6.10;;;;;;;11.31;43.86;96241.91;5094591;28;20624;-82
2021/03/02 11:30:14;;;;;;;8.67;7.33;;;;;;;11.44;42.68;96237.50;5094700;28;20479;-81
2021/03/02 11:32:41;;;;;;;10.70;6.80;;;;;;;11.59;43.02;96225.97;5094485;28;20928;-80
2021/03/02 11:35:09;;;;;;;8.40;6.63;;;;;;;11.58;42.45;96226.94;5094170;28;20436;-81